createdAt,value
2022-09-22T00:00:53.766Z,5.8
2022-09-22T00:02:09.908Z,5.8
2022-09-22T00:03:25.000Z,5.8
2022-09-22T00:04:41.000Z,5.8
2022-09-22T00:05:58.000Z,5.8
2022-09-22T00:07:14.000Z,5.8
2022-09-22T00:08:30.646Z,5.8
2022-09-22T00:09:46.000Z,5.8
2022-09-22T00:11:02.942Z,5.8
2022-09-22T00:12:18.000Z,5.8
2022-09-22T00:13:35.000Z,5.8
2022-09-22T00:14:50.393Z,5.8
2022-09-22T00:16:06.000Z,5.8
2022-09-22T00:17:22.000Z,5.8
2022-09-22T00:18:38.000Z,5.8
2022-09-22T00:19:54.000Z,5.7
2022-09-22T00:21:10.000Z,5.7
2022-09-22T00:22:27.000Z,5.7
2022-09-22T00:23:43.000Z,5.7
2022-09-22T00:24:59.570Z,5.7
2022-09-22T00:26:15.713Z,5.7
2022-09-22T00:27:31.000Z,5.7
2022-09-22T00:28:47.000Z,5.6
2022-09-22T00:30:03.000Z,5.6
2022-09-22T00:31:19.327Z,5.6
2022-09-22T00:32:35.470Z,5.6
2022-09-22T00:33:51.000Z,5.6
2022-09-22T00:35:07.000Z,5.6
2022-09-22T00:36:23.000Z,5.6
2022-09-22T00:37:39.000Z,5.6
2022-09-22T00:38:55.000Z,5.6
2022-09-22T00:40:12.000Z,5.6
2022-09-22T00:41:28.503Z,5.5
2022-09-22T00:42:44.000Z,5.5
2022-09-22T00:44:00.000Z,5.5
2022-09-22T00:45:16.937Z,5.5
2022-09-22T00:46:33.083Z,5.5
2022-09-22T00:47:48.246Z,5.5
2022-09-22T00:49:04.000Z,5.5
2022-09-22T00:50:20.000Z,5.5
2022-09-22T00:51:36.000Z,5.5
2022-09-22T00:52:52.000Z,5.5
2022-09-22T00:54:08.000Z,5.4
2022-09-22T00:55:25.126Z,5.4
2022-09-22T00:56:41.000Z,5.4
2022-09-22T00:57:57.000Z,5.4
2022-09-22T00:59:13.000Z,5.4
2022-09-22T01:00:29.000Z,5.4
2022-09-22T01:01:45.000Z,5.4
2022-09-22T01:03:02.008Z,5.4
2022-09-22T01:04:16.000Z,5.4
2022-09-22T01:05:33.314Z,5.4
2022-09-22T01:06:49.000Z,5.3
2022-09-22T01:08:05.000Z,5.3
2022-09-22T01:09:21.000Z,5.3
2022-09-22T01:10:37.908Z,5.3
2022-09-22T01:11:53.000Z,5.3
2022-09-22T01:13:10.196Z,5.3
2022-09-22T01:14:26.351Z,5.3
2022-09-22T01:15:42.000Z,5.3
2022-09-22T01:16:58.635Z,5.3
2022-09-22T01:18:14.000Z,5.3
2022-09-22T01:19:30.000Z,5.3
2022-09-22T01:20:45.000Z,5.3
2022-09-22T01:22:02.236Z,5.3
2022-09-22T01:23:18.000Z,5.3
2022-09-22T01:24:34.538Z,5.3
2022-09-22T01:25:50.000Z,5.3
2022-09-22T01:27:06.000Z,5.3
2022-09-22T01:28:21.997Z,5.3
2022-09-22T01:29:37.000Z,5.3
2022-09-22T01:30:54.000Z,5.3
2022-09-22T01:32:10.000Z,5.3
2022-09-22T01:33:26.000Z,5.3
2022-09-22T01:34:42.000Z,5.2
2022-09-22T01:35:58.000Z,5.2
2022-09-22T01:37:14.000Z,5.2
2022-09-22T01:38:30.000Z,5.2
2022-09-22T01:39:47.000Z,5.2
2022-09-22T01:41:03.000Z,5.2
2022-09-22T01:42:19.000Z,5.2
2022-09-22T01:43:35.000Z,5.2
2022-09-22T01:44:50.920Z,5.2
2022-09-22T01:46:06.000Z,5.2
2022-09-22T01:47:22.000Z,5.1
2022-09-22T01:48:39.000Z,5.1
2022-09-22T01:49:55.000Z,5.1
2022-09-22T01:51:11.000Z,5.1
2022-09-22T01:52:27.000Z,5.1
2022-09-22T01:53:43.000Z,5.1
2022-09-22T01:54:59.000Z,5.1
2022-09-22T01:56:16.249Z,5.1
2022-09-22T01:57:32.000Z,5.1
2022-09-22T01:58:48.000Z,5.1
2022-09-22T02:00:04.000Z,5.1
2022-09-22T02:01:19.856Z,5
2022-09-22T02:02:35.000Z,5
2022-09-22T02:03:51.000Z,5
2022-09-22T02:05:08.000Z,5
2022-09-22T02:06:24.000Z,5
2022-09-22T02:07:40.000Z,5
2022-09-22T02:08:56.732Z,5
2022-09-22T02:10:12.000Z,5
2022-09-22T02:11:28.000Z,5
2022-09-22T02:12:44.000Z,5
2022-09-22T02:14:01.000Z,5
2022-09-22T02:15:17.000Z,5
2022-09-22T02:16:33.000Z,5
2022-09-22T02:17:48.000Z,5
2022-09-22T02:19:04.000Z,5
2022-09-22T02:20:20.000Z,4.9
2022-09-22T02:21:36.000Z,4.9
2022-09-22T02:22:53.000Z,4.9
2022-09-22T02:24:09.000Z,4.9
2022-09-22T02:25:25.000Z,4.9
2022-09-22T02:26:41.000Z,4.9
2022-09-22T02:27:57.000Z,4.9
2022-09-22T02:29:13.000Z,4.9
2022-09-22T02:30:30.000Z,4.9
2022-09-22T02:31:46.000Z,4.9
2022-09-22T02:33:02.000Z,4.9
2022-09-22T02:34:17.000Z,4.8
2022-09-22T02:35:33.000Z,4.8
2022-09-22T02:36:49.000Z,4.8
2022-09-22T02:38:05.000Z,4.8
2022-09-22T02:39:22.000Z,4.8
2022-09-22T02:40:38.000Z,4.8
2022-09-22T02:41:54.591Z,4.8
2022-09-22T02:43:10.000Z,4.8
2022-09-22T02:44:26.886Z,4.7
2022-09-22T02:45:42.000Z,4.7
2022-09-22T02:46:58.000Z,4.7
2022-09-22T02:48:15.000Z,4.7
2022-09-22T02:49:31.000Z,4.7
2022-09-22T02:50:46.000Z,4.7
2022-09-22T02:52:02.000Z,4.7
2022-09-22T02:53:18.928Z,4.7
2022-09-22T02:54:34.000Z,4.6
2022-09-22T02:55:50.000Z,4.6
2022-09-22T02:57:07.000Z,4.6
2022-09-22T02:58:23.519Z,4.6
2022-09-22T02:59:39.000Z,4.6
2022-09-22T03:00:55.000Z,4.6
2022-09-22T03:02:11.000Z,4.6
2022-09-22T03:03:27.000Z,4.6
2022-09-22T03:04:44.000Z,4.6
2022-09-22T03:06:00.000Z,4.6
2022-09-22T03:07:15.000Z,4.5
2022-09-22T03:08:31.720Z,4.5
2022-09-22T03:09:47.000Z,4.5
2022-09-22T03:11:03.000Z,4.5
2022-09-22T03:12:19.000Z,4.5
2022-09-22T03:13:36.000Z,4.5
2022-09-22T03:14:52.000Z,4.5
2022-09-22T03:16:08.000Z,4.5
2022-09-22T03:17:24.000Z,4.5
2022-09-22T03:18:40.000Z,4.5
2022-09-22T03:19:56.000Z,4.5
2022-09-22T03:21:12.000Z,4.5
2022-09-22T03:22:29.000Z,4.5
2022-09-22T03:23:44.000Z,4.5
2022-09-22T03:25:00.000Z,4.6
2022-09-22T03:26:16.000Z,4.5
2022-09-22T03:27:32.000Z,4.6
2022-09-22T03:28:49.070Z,4.6
2022-09-22T03:30:04.000Z,4.6
2022-09-22T03:31:21.000Z,4.6
2022-09-22T03:32:37.509Z,4.6
2022-09-22T03:33:53.000Z,4.6
2022-09-22T03:35:09.000Z,4.7
2022-09-22T03:36:25.947Z,4.7
2022-09-22T03:37:41.000Z,4.7
2022-09-22T03:38:58.000Z,4.8
2022-09-22T03:40:13.000Z,4.8
2022-09-22T03:41:29.000Z,4.8
2022-09-22T03:42:45.000Z,4.8
2022-09-22T03:44:01.000Z,4.9
2022-09-22T03:45:17.000Z,4.9
2022-09-22T03:46:33.000Z,4.9
2022-09-22T03:47:50.300Z,4.9
2022-09-22T03:49:06.000Z,4.9
2022-09-22T03:50:22.000Z,4.9
2022-09-22T03:51:38.000Z,4.9
2022-09-22T03:52:54.000Z,4.9
2022-09-22T03:54:10.000Z,4.9
2022-09-22T03:55:26.000Z,4.9
2022-09-22T03:56:42.000Z,4.9
2022-09-22T03:57:58.000Z,4.9
2022-09-22T03:59:14.000Z,4.9
2022-09-22T04:00:30.000Z,4.9
2022-09-22T04:01:46.916Z,4.9
2022-09-22T04:03:02.000Z,4.9
2022-09-22T04:04:18.000Z,4.9
2022-09-22T04:05:35.361Z,4.9
2022-09-22T04:06:51.000Z,4.9
2022-09-22T04:08:07.000Z,4.9
2022-09-22T04:09:23.000Z,4.9
2022-09-22T04:10:39.000Z,4.9
2022-09-22T04:11:55.000Z,4.9
2022-09-22T04:13:11.261Z,4.9
2022-09-22T04:14:27.000Z,5
2022-09-22T04:15:43.000Z,5
2022-09-22T04:16:59.700Z,5
2022-09-22T04:18:15.000Z,5.1
2022-09-22T04:19:31.000Z,5.1
2022-09-22T04:20:47.000Z,5.1
2022-09-22T04:22:04.000Z,5.1
2022-09-22T04:23:20.000Z,5.2
2022-09-22T04:24:36.000Z,5.2
2022-09-22T04:25:52.000Z,5.2
2022-09-22T04:27:08.881Z,5.3
2022-09-22T04:28:24.000Z,5.3
2022-09-22T04:29:39.000Z,5.3
2022-09-22T04:30:56.000Z,5.4
2022-09-22T04:32:12.489Z,5.4
2022-09-22T04:33:28.000Z,5.4
2022-09-22T04:34:44.000Z,5.4
2022-09-22T04:36:00.000Z,5.5
2022-09-22T04:37:16.000Z,5.5
2022-09-22T04:38:33.234Z,5.5
2022-09-22T04:39:49.369Z,5.6
2022-09-22T04:41:05.000Z,5.6
2022-09-22T04:42:21.000Z,5.6
2022-09-22T04:43:37.000Z,5.6
2022-09-22T04:44:53.000Z,5.7
2022-09-22T04:46:08.000Z,5.7
2022-09-22T04:47:25.266Z,5.7
2022-09-22T04:48:41.000Z,5.7
2022-09-22T04:49:57.000Z,5.7
2022-09-22T04:51:13.000Z,5.7
2022-09-22T04:52:29.000Z,5.8
2022-09-22T04:53:46.011Z,5.8
2022-09-22T04:55:01.000Z,5.8
2022-09-22T04:56:18.000Z,5.8
2022-09-22T04:57:34.000Z,5.8
2022-09-22T04:58:50.000Z,5.8
2022-09-22T05:00:06.737Z,5.9
2022-09-22T05:01:22.000Z,5.9
2022-09-22T05:02:37.000Z,5.9
2022-09-22T05:03:54.195Z,5.9
2022-09-22T05:05:10.000Z,5.9
2022-09-22T05:06:26.000Z,6
2022-09-22T05:07:42.000Z,6
2022-09-22T05:08:58.000Z,6
2022-09-22T05:10:14.000Z,6
2022-09-22T05:11:31.077Z,6
2022-09-22T05:12:47.220Z,6.1
2022-09-22T05:14:03.000Z,6.1
2022-09-22T05:15:19.000Z,6.1
2022-09-22T05:16:35.000Z,6.1
2022-09-22T05:17:51.000Z,6.1
2022-09-22T05:19:06.000Z,6.1
2022-09-22T05:20:22.000Z,6.1
2022-09-22T05:21:39.000Z,6.2
2022-09-22T05:22:55.000Z,6.2
2022-09-22T05:24:11.000Z,6.2
2022-09-22T05:25:27.716Z,6.2
2022-09-22T05:26:43.000Z,6.2
2022-09-22T05:28:00.005Z,6.2
2022-09-22T05:29:15.000Z,6.2
2022-09-22T05:30:32.000Z,6.2
2022-09-22T05:31:48.449Z,6.2
2022-09-22T05:33:04.000Z,6.3
2022-09-22T05:34:20.000Z,6.3
2022-09-22T05:35:35.000Z,6.3
2022-09-22T05:36:51.000Z,6.3
2022-09-22T05:38:07.000Z,6.3
2022-09-22T05:39:24.000Z,6.3
2022-09-22T05:40:40.000Z,6.3
2022-09-22T05:41:56.000Z,6.3
2022-09-22T05:43:11.809Z,6.3
2022-09-22T05:44:27.000Z,6.3
2022-09-22T05:45:44.105Z,6.3
2022-09-22T05:47:00.247Z,6.3
2022-09-22T05:48:16.000Z,6.3
2022-09-22T05:49:32.000Z,6.3
2022-09-22T05:50:48.000Z,6.3
2022-09-22T05:52:04.000Z,6.3
2022-09-22T05:53:20.000Z,6.3
2022-09-22T05:54:37.130Z,6.3
2022-09-22T05:55:53.000Z,6.3
2022-09-22T05:57:09.000Z,6.3
2022-09-22T05:58:25.596Z,6.3
2022-09-22T05:59:40.000Z,6.3
2022-09-22T06:00:56.000Z,6.3
2022-09-22T06:02:13.033Z,6.3
2022-09-22T06:03:28.000Z,6.3
2022-09-22T06:04:45.000Z,6.3
2022-09-22T06:06:01.475Z,6.3
2022-09-22T06:07:17.000Z,6.3
2022-09-22T06:08:33.000Z,6.3
2022-09-22T06:09:49.000Z,6.2
2022-09-22T06:11:05.000Z,6.2
2022-09-22T06:12:21.000Z,6.2
2022-09-22T06:13:38.000Z,6.2
2022-09-22T06:14:54.000Z,6.2
2022-09-22T06:16:09.662Z,6.2
2022-09-22T06:17:25.000Z,6.1
2022-09-22T06:18:41.000Z,6.1
2022-09-22T06:19:57.000Z,6.1
2022-09-22T06:21:14.000Z,6.1
2022-09-22T06:22:30.000Z,6.1
2022-09-22T06:23:46.000Z,6.1
2022-09-22T06:25:02.000Z,6
2022-09-22T06:26:18.000Z,6
2022-09-22T06:27:34.000Z,6.1
2022-09-22T06:28:50.000Z,6.1
2022-09-22T06:30:07.000Z,6.1
2022-09-22T06:31:23.000Z,6.1
2022-09-22T06:32:38.000Z,6.1
2022-09-22T06:33:54.744Z,6.1
2022-09-22T06:35:10.000Z,6.1
2022-09-22T06:36:26.000Z,6.2
2022-09-22T06:37:42.000Z,6.2
2022-09-22T06:38:59.000Z,6.2
2022-09-22T06:40:15.000Z,6.2
2022-09-22T06:41:31.621Z,6.3
2022-09-22T06:42:47.000Z,6.3
2022-09-22T06:44:03.000Z,6.3
2022-09-22T06:45:20.065Z,6.3
2022-09-22T06:46:35.000Z,6.4
2022-09-22T06:47:52.000Z,6.4
2022-09-22T06:49:07.000Z,6.4
2022-09-22T06:50:23.000Z,6.5
2022-09-22T06:51:39.000Z,6.5
2022-09-22T06:52:55.000Z,6.6
2022-09-22T06:54:11.000Z,6.6
2022-09-22T06:55:28.000Z,6.7
2022-09-22T06:56:44.000Z,6.8
2022-09-22T06:58:00.000Z,6.8
2022-09-22T06:59:16.000Z,6.9
2022-09-22T07:00:32.000Z,7
2022-09-22T07:01:48.000Z,7.1
2022-09-22T07:03:04.000Z,7.2
2022-09-22T07:04:21.000Z,7.3
2022-09-22T07:05:36.000Z,7.4
2022-09-22T07:06:52.593Z,7.6
2022-09-22T07:08:08.000Z,7.7
2022-09-22T07:09:24.000Z,7.9
2022-09-22T07:10:41.037Z,8.1
2022-09-22T07:11:56.000Z,8.2
2022-09-22T07:13:13.000Z,8.4
2022-09-22T07:14:29.000Z,8.5
2022-09-22T07:15:45.000Z,8.6
2022-09-22T07:17:01.000Z,8.7
2022-09-22T07:18:17.000Z,8.9
2022-09-22T07:19:33.000Z,9
2022-09-22T07:20:49.000Z,9.1
2022-09-22T07:22:05.000Z,9.2
2022-09-22T07:23:21.000Z,9.4
2022-09-22T07:24:37.000Z,9.5
2022-09-22T07:25:53.000Z,9.7
2022-09-22T07:27:09.000Z,9.8
2022-09-22T07:28:25.000Z,10
2022-09-22T07:29:42.000Z,10.2
2022-09-22T07:30:58.000Z,10.4
2022-09-22T07:32:14.553Z,10.6
2022-09-22T07:33:30.000Z,10.8
2022-09-22T07:34:46.000Z,10.9
2022-09-22T07:36:02.000Z,11
2022-09-22T07:37:18.000Z,11.1
2022-09-22T07:38:34.000Z,11.1
2022-09-22T07:39:50.000Z,11.2
2022-09-22T07:41:06.584Z,11.3
2022-09-22T07:42:22.000Z,11.4
2022-09-22T07:43:38.893Z,11.5
2022-09-22T07:44:55.061Z,11.6
2022-09-22T07:46:10.000Z,11.7
2022-09-22T07:47:27.000Z,11.9
2022-09-22T07:48:43.472Z,12
2022-09-22T07:49:59.000Z,12.1
2022-09-22T07:51:15.000Z,12.2
2022-09-22T07:52:31.000Z,12.2
2022-09-22T07:53:47.000Z,12.3
2022-09-22T07:55:03.000Z,12.4
2022-09-22T07:56:19.000Z,12.5
2022-09-22T07:57:35.000Z,12.6
2022-09-22T07:58:51.000Z,12.7
2022-09-22T08:00:07.000Z,12.8
2022-09-22T08:01:23.000Z,12.9
2022-09-22T08:02:39.000Z,13.1
2022-09-22T08:03:56.000Z,13.2
2022-09-22T08:05:12.000Z,13.4
2022-09-22T08:06:28.000Z,13.6
2022-09-22T08:07:44.000Z,13.8
2022-09-22T08:09:00.000Z,14
2022-09-22T08:10:16.000Z,14.2
2022-09-22T08:11:31.000Z,14.3
2022-09-22T08:12:48.000Z,14.4
2022-09-22T08:14:04.000Z,14.6
2022-09-22T08:15:20.000Z,14.7
2022-09-22T08:16:36.000Z,14.7
2022-09-22T08:17:52.000Z,14.8
2022-09-22T08:19:08.000Z,14.9
2022-09-22T08:20:24.000Z,14.9
2022-09-22T08:21:41.000Z,15
2022-09-22T08:22:57.479Z,15
2022-09-22T08:24:13.000Z,15.1
2022-09-22T08:25:29.000Z,15.2
2022-09-22T08:26:45.903Z,15.4
2022-09-22T08:28:00.000Z,15.5
2022-09-22T08:29:16.000Z,15.6
2022-09-22T08:30:33.000Z,15.8
2022-09-22T08:31:49.000Z,15.9
2022-09-22T08:33:05.000Z,16.1
2022-09-22T08:34:21.000Z,16.3
2022-09-22T08:35:37.933Z,16.5
2022-09-22T08:36:53.000Z,16.6
2022-09-22T08:38:10.000Z,16.8
2022-09-22T08:39:26.000Z,17
2022-09-22T08:40:42.000Z,17.2
2022-09-22T08:41:58.000Z,17.4
2022-09-22T08:43:14.000Z,17.6
2022-09-22T08:44:29.000Z,17.8
2022-09-22T08:45:46.112Z,18
2022-09-22T08:47:02.000Z,18.2
2022-09-22T08:48:18.000Z,18.4
2022-09-22T08:49:34.000Z,18.6
2022-09-22T08:50:50.000Z,18.8
2022-09-22T08:52:06.000Z,19
2022-09-22T08:53:22.000Z,19.1
2022-09-22T08:54:38.000Z,19.3
2022-09-22T08:55:55.000Z,19.4
2022-09-22T08:57:11.000Z,19.6
2022-09-22T08:58:27.000Z,19.8
2022-09-22T08:59:43.000Z,19.9
2022-09-22T09:00:58.000Z,20.1
2022-09-22T09:02:14.000Z,20.3
2022-09-22T09:03:30.000Z,20.4
2022-09-22T09:04:47.000Z,20.6
2022-09-22T09:06:03.000Z,20.8
2022-09-22T09:07:19.000Z,20.9
2022-09-22T09:08:35.000Z,21.1
2022-09-22T09:09:51.000Z,21.1
2022-09-22T09:11:07.000Z,21.2
2022-09-22T09:12:23.000Z,21.3
2022-09-22T09:13:40.000Z,21.4
2022-09-22T09:14:56.000Z,21.5
2022-09-22T09:16:12.000Z,21.6
2022-09-22T09:17:27.803Z,21.7
2022-09-22T09:18:43.924Z,21.8
2022-09-22T09:19:59.000Z,21.8
2022-09-22T09:21:15.000Z,21.9
2022-09-22T09:22:32.356Z,22
2022-09-22T09:23:48.000Z,22
2022-09-22T09:25:04.649Z,22.1
2022-09-22T09:26:20.795Z,22.2
2022-09-22T09:27:36.000Z,22.4
2022-09-22T09:28:52.000Z,22.4
2022-09-22T09:30:09.000Z,22.5
2022-09-22T09:31:25.000Z,22.6
2022-09-22T09:32:41.000Z,22.6
2022-09-22T09:33:56.000Z,22.6
2022-09-22T09:35:12.000Z,22.7
2022-09-22T09:36:28.000Z,22.8
2022-09-22T09:37:44.000Z,22.8
2022-09-22T09:39:01.261Z,22.9
2022-09-22T09:40:17.000Z,23
2022-09-22T09:41:33.000Z,23
2022-09-22T09:42:49.000Z,23.1
2022-09-22T09:44:05.000Z,23.2
2022-09-22T09:45:21.000Z,23.3
2022-09-22T09:46:38.135Z,23.4
2022-09-22T09:47:54.000Z,23.5
2022-09-22T09:49:10.000Z,23.5
2022-09-22T09:50:25.000Z,23.6
2022-09-22T09:51:41.000Z,23.7
2022-09-22T09:52:57.000Z,23.8
2022-09-22T09:54:14.028Z,23.9
2022-09-22T09:55:29.000Z,24
2022-09-22T09:56:46.000Z,24.2
2022-09-22T09:58:01.000Z,24.4
2022-09-22T09:59:17.628Z,24.5
2022-09-22T10:00:33.778Z,24.7
2022-09-22T10:01:49.000Z,24.8
2022-09-22T10:03:05.000Z,24.9
2022-09-22T10:04:21.000Z,25.1
2022-09-22T10:05:38.000Z,25.4
2022-09-22T10:06:54.000Z,25.6
2022-09-22T10:08:10.000Z,25.8
2022-09-22T10:09:26.000Z,26
2022-09-22T10:10:42.931Z,26.3
2022-09-22T10:11:58.000Z,26.5
2022-09-22T10:13:15.000Z,26.7
2022-09-22T10:14:30.000Z,26.7
2022-09-22T10:15:46.000Z,26.7
2022-09-22T10:17:02.000Z,26.8
2022-09-22T10:18:18.000Z,26.9
2022-09-22T10:19:34.000Z,26.9
2022-09-22T10:20:50.000Z,26.3
2022-09-22T10:22:07.000Z,25.8
2022-09-22T10:23:23.000Z,25.8
2022-09-22T10:24:39.000Z,25.3
2022-09-22T10:25:55.000Z,25.4
2022-09-22T10:27:11.000Z,25.2
2022-09-22T10:28:27.000Z,25.2
2022-09-22T10:29:43.000Z,25.4
2022-09-22T10:30:59.000Z,25.6
2022-09-22T10:32:15.000Z,25.8
2022-09-22T10:33:31.000Z,26
2022-09-22T10:34:47.000Z,26.2
2022-09-22T10:36:03.000Z,26.4
2022-09-22T10:37:20.017Z,26.5
2022-09-22T10:38:35.000Z,26.6
2022-09-22T10:39:52.000Z,26.3
2022-09-22T10:41:08.000Z,25.9
2022-09-22T10:42:24.000Z,25.5
2022-09-22T10:43:40.000Z,25.2
2022-09-22T10:44:56.000Z,25.2
2022-09-22T10:46:12.000Z,25.3
2022-09-22T10:47:27.000Z,25.3
2022-09-22T10:48:44.000Z,25.5
2022-09-22T10:50:00.000Z,25.7
2022-09-22T10:51:16.000Z,25.8
2022-09-22T10:52:32.000Z,25.6
2022-09-22T10:53:48.000Z,25.7
2022-09-22T10:55:04.000Z,25.8
2022-09-22T10:56:20.000Z,25.9
2022-09-22T10:57:37.000Z,26.1
2022-09-22T10:58:53.000Z,26.3
2022-09-22T11:00:09.000Z,26.4
2022-09-22T11:01:25.000Z,26.5
2022-09-22T11:02:41.000Z,26.6
2022-09-22T11:03:56.000Z,26.1
2022-09-22T11:05:13.249Z,25.6
2022-09-22T11:06:29.000Z,25.1
2022-09-22T11:07:45.000Z,25.1
2022-09-22T11:09:01.000Z,25
2022-09-22T11:10:17.000Z,25.1
2022-09-22T11:11:33.977Z,25.1
2022-09-22T11:12:49.000Z,25
2022-09-22T11:14:06.000Z,25.1
2022-09-22T11:15:22.000Z,25.1
2022-09-22T11:16:38.000Z,25
2022-09-22T11:17:54.705Z,24.7
2022-09-22T11:19:10.855Z,24.2
2022-09-22T11:20:25.000Z,23.9
2022-09-22T11:21:41.000Z,23.9
2022-09-22T11:22:58.000Z,24.1
2022-09-22T11:24:14.000Z,23.9
2022-09-22T11:25:30.000Z,23.7
2022-09-22T11:26:46.742Z,23.5
2022-09-22T11:28:02.000Z,23.2
2022-09-22T11:29:18.000Z,23.4
2022-09-22T11:30:34.000Z,23.6
2022-09-22T11:31:51.000Z,23.9
2022-09-22T11:33:07.000Z,24.2
2022-09-22T11:34:23.000Z,24.2
2022-09-22T11:35:39.000Z,24
2022-09-22T11:36:54.000Z,23.9
2022-09-22T11:38:11.067Z,23.5
2022-09-22T11:39:26.000Z,23.2
2022-09-22T11:40:43.000Z,23.3
2022-09-22T11:41:59.000Z,23.5
2022-09-22T11:43:15.000Z,23.7
2022-09-22T11:44:31.000Z,23.9
2022-09-22T11:45:47.000Z,24.1
2022-09-22T11:47:03.000Z,24.3
2022-09-22T11:48:20.000Z,24.5
2022-09-22T11:49:36.000Z,24.5
2022-09-22T11:50:52.000Z,24.6
2022-09-22T11:52:08.000Z,24.6
2022-09-22T11:53:23.000Z,24.7
2022-09-22T11:54:39.000Z,24.4
2022-09-22T11:55:55.000Z,24.1
2022-09-22T11:57:12.000Z,24.1
2022-09-22T11:58:28.000Z,23.7
2022-09-22T11:59:44.000Z,23.4
2022-09-22T12:01:00.000Z,23.1
2022-09-22T12:02:16.000Z,22.9
2022-09-22T12:03:32.000Z,22.7
2022-09-22T12:04:48.000Z,22.4
2022-09-22T12:06:05.272Z,22.3
2022-09-22T12:07:21.000Z,22.3
2022-09-22T12:08:37.000Z,22.5
2022-09-22T12:09:52.000Z,22.6
2022-09-22T12:11:08.000Z,22.7
2022-09-22T12:12:24.000Z,22.9
2022-09-22T12:13:41.164Z,22.8
2022-09-22T12:14:57.000Z,22.7
2022-09-22T12:16:13.000Z,22.8
2022-09-22T12:17:29.000Z,23.1
2022-09-22T12:18:45.000Z,23.4
2022-09-22T12:20:01.000Z,23.7
2022-09-22T12:21:17.000Z,24.1
2022-09-22T12:22:33.000Z,24
2022-09-22T12:23:50.000Z,23.8
2022-09-22T12:25:06.000Z,23.6
2022-09-22T12:26:21.000Z,23.5
2022-09-22T12:27:37.000Z,23.2
2022-09-22T12:28:53.000Z,23.1
2022-09-22T12:30:09.000Z,22.8
2022-09-22T12:31:25.000Z,22.7
2022-09-22T12:32:42.362Z,23
2022-09-22T12:33:58.508Z,23
2022-09-22T12:35:14.000Z,22.8
2022-09-22T12:36:30.000Z,22.8
2022-09-22T12:37:46.000Z,23.1
2022-09-22T12:39:03.098Z,23.4
2022-09-22T12:40:19.000Z,23.7
2022-09-22T12:41:35.378Z,23.9
2022-09-22T12:42:50.000Z,24.1
2022-09-22T12:44:06.000Z,24.1
2022-09-22T12:45:22.000Z,24
2022-09-22T12:46:38.000Z,24.1
2022-09-22T12:47:54.000Z,24.2
2022-09-22T12:49:11.000Z,24.3
2022-09-22T12:50:27.000Z,24.2
2022-09-22T12:51:43.000Z,23.9
2022-09-22T12:52:59.000Z,23.8
2022-09-22T12:54:15.000Z,23.9
2022-09-22T12:55:31.000Z,23.7
2022-09-22T12:56:47.000Z,23.7
2022-09-22T12:58:04.000Z,23.6
2022-09-22T12:59:19.448Z,23.4
2022-09-22T13:00:35.598Z,23.1
2022-09-22T13:01:51.000Z,22.9
2022-09-22T13:03:07.877Z,22.6
2022-09-22T13:04:23.000Z,22.4
2022-09-22T13:05:39.000Z,22.2
2022-09-22T13:06:56.000Z,22
2022-09-22T13:08:12.000Z,21.9
2022-09-22T13:09:28.611Z,22
2022-09-22T13:10:44.000Z,22.2
2022-09-22T13:12:00.000Z,22.1
2022-09-22T13:13:16.000Z,22.1
2022-09-22T13:14:32.000Z,22.5
2022-09-22T13:15:48.000Z,22.7
2022-09-22T13:17:04.000Z,23
2022-09-22T13:18:20.000Z,23.1
2022-09-22T13:19:36.000Z,22.9
2022-09-22T13:20:52.000Z,22.8
2022-09-22T13:22:08.000Z,22.7
2022-09-22T13:23:25.000Z,22.8
2022-09-22T13:24:41.000Z,23
2022-09-22T13:25:57.000Z,23.1
2022-09-22T13:27:13.000Z,23.3
2022-09-22T13:28:29.806Z,23.4
2022-09-22T13:29:45.000Z,23.5
2022-09-22T13:31:01.000Z,23.6
2022-09-22T13:32:17.000Z,23.7
2022-09-22T13:33:33.000Z,23.7
2022-09-22T13:34:49.000Z,23.7
2022-09-22T13:36:05.000Z,23.5
2022-09-22T13:37:21.000Z,23.5
2022-09-22T13:38:37.000Z,23.3
2022-09-22T13:39:53.000Z,23.3
2022-09-22T13:41:10.000Z,23.2
2022-09-22T13:42:26.000Z,23.1
2022-09-22T13:43:42.000Z,23.1
2022-09-22T13:44:58.000Z,23.1
2022-09-22T13:46:14.859Z,23.1
2022-09-22T13:47:30.000Z,23.1
2022-09-22T13:48:45.000Z,23.2
2022-09-22T13:50:02.000Z,23.3
2022-09-22T13:51:18.000Z,23.2
2022-09-22T13:52:34.000Z,23
2022-09-22T13:53:50.000Z,22.8
2022-09-22T13:55:06.000Z,22.6
2022-09-22T13:56:22.000Z,22.4
2022-09-22T13:57:39.181Z,22.1
2022-09-22T13:58:55.000Z,21.9
2022-09-22T14:00:11.000Z,21.8
2022-09-22T14:01:27.000Z,21.7
2022-09-22T14:02:43.000Z,21.6
2022-09-22T14:03:59.000Z,21.4
2022-09-22T14:05:14.000Z,21.3
2022-09-22T14:06:30.000Z,21.2
2022-09-22T14:07:47.000Z,21.1
2022-09-22T14:09:03.000Z,21
2022-09-22T14:10:19.648Z,20.9
2022-09-22T14:11:35.000Z,20.8
2022-09-22T14:12:50.000Z,20.8
2022-09-22T14:14:06.000Z,20.8
2022-09-22T14:15:23.000Z,20.9
2022-09-22T14:16:39.000Z,20.9
2022-09-22T14:17:55.000Z,20.9
2022-09-22T14:19:11.000Z,20.9
2022-09-22T14:20:27.000Z,20.9
2022-09-22T14:21:43.000Z,20.8
2022-09-22T14:22:59.000Z,20.8
2022-09-22T14:24:16.000Z,20.7
2022-09-22T14:25:32.414Z,20.7
2022-09-22T14:26:48.000Z,20.6
2022-09-22T14:28:04.000Z,20.5
2022-09-22T14:29:19.000Z,20.4
2022-09-22T14:30:35.000Z,20.3
2022-09-22T14:31:51.000Z,20.1
2022-09-22T14:33:08.000Z,20
2022-09-22T14:34:24.000Z,19.9
2022-09-22T14:35:40.591Z,19.7
2022-09-22T14:36:56.000Z,19.6
2022-09-22T14:38:12.000Z,19.4
2022-09-22T14:39:28.000Z,19.3
2022-09-22T14:40:44.000Z,19.2
2022-09-22T14:42:01.000Z,19.1
2022-09-22T14:43:17.000Z,19
2022-09-22T14:44:33.000Z,18.9
2022-09-22T14:45:48.000Z,18.8
2022-09-22T14:47:04.917Z,18.7
2022-09-22T14:48:20.000Z,18.6
2022-09-22T14:49:36.000Z,18.5
2022-09-22T14:50:53.000Z,18.4
2022-09-22T14:52:09.000Z,18.4
2022-09-22T14:53:25.000Z,18.3
2022-09-22T14:54:41.000Z,18.3
2022-09-22T14:55:57.000Z,18.3
2022-09-22T14:57:13.000Z,18.3
2022-09-22T14:58:29.000Z,18.3
2022-09-22T14:59:46.000Z,18.4
2022-09-22T15:01:02.000Z,18.4
2022-09-22T15:02:17.000Z,18.5
2022-09-22T15:03:33.000Z,18.6
2022-09-22T15:04:49.000Z,18.7
2022-09-22T15:06:05.000Z,18.8
2022-09-22T15:07:22.000Z,19
2022-09-22T15:08:38.000Z,19.2
2022-09-22T15:09:54.000Z,19.3
2022-09-22T15:11:10.696Z,19.5
2022-09-22T15:12:26.000Z,19.6
2022-09-22T15:13:42.000Z,19.7
2022-09-22T15:14:58.000Z,19.9
2022-09-22T15:16:15.271Z,19.9
2022-09-22T15:17:31.000Z,20
2022-09-22T15:18:46.000Z,20.1
2022-09-22T15:20:02.000Z,20.2
2022-09-22T15:21:18.000Z,20.3
2022-09-22T15:22:34.000Z,20.3
2022-09-22T15:23:50.000Z,20.4
2022-09-22T15:25:07.000Z,20.4
2022-09-22T15:26:23.000Z,20.4
2022-09-22T15:27:39.000Z,20.3
2022-09-22T15:28:55.000Z,20.3
2022-09-22T15:30:11.000Z,20.2
2022-09-22T15:31:27.000Z,20
2022-09-22T15:32:43.000Z,19.8
2022-09-22T15:34:00.323Z,19.7
2022-09-22T15:35:15.486Z,19.6
2022-09-22T15:36:31.000Z,19.5
2022-09-22T15:37:47.000Z,19.4
2022-09-22T15:39:03.000Z,19.3
2022-09-22T15:40:19.000Z,19.2
2022-09-22T15:41:36.217Z,19.1
2022-09-22T15:42:52.000Z,19
2022-09-22T15:44:08.000Z,18.9
2022-09-22T15:45:24.000Z,18.8
2022-09-22T15:46:40.000Z,18.7
2022-09-22T15:47:56.000Z,18.7
2022-09-22T15:49:12.000Z,18.6
2022-09-22T15:50:29.000Z,18.5
2022-09-22T15:51:44.395Z,18.4
2022-09-22T15:53:00.000Z,18.4
2022-09-22T15:54:16.682Z,18.3
2022-09-22T15:56:48.000Z,18.2
2022-09-22T16:00:37.000Z,18
2022-09-22T16:03:09.700Z,17.9
2022-09-22T16:05:41.000Z,17.8
2022-09-22T16:06:57.000Z,17.7
2022-09-22T16:08:13.000Z,17.7
2022-09-22T16:09:29.000Z,17.6
2022-09-22T16:10:45.000Z,17.6
2022-09-22T16:13:17.000Z,17.5
2022-09-22T16:15:50.167Z,17.4
2022-09-22T16:17:06.000Z,17.3
2022-09-22T16:18:22.000Z,17.2
2022-09-22T16:19:38.000Z,17.2
2022-09-22T16:22:10.898Z,17
2022-09-22T16:23:26.000Z,17
2022-09-22T16:24:41.000Z,16.9
2022-09-22T16:25:58.000Z,16.9
2022-09-22T16:27:14.000Z,16.8
2022-09-22T16:28:30.000Z,16.7
2022-09-22T16:29:46.000Z,16.7
2022-09-22T16:31:02.000Z,16.6
2022-09-22T16:32:18.000Z,16.6
2022-09-22T16:33:34.000Z,16.5
2022-09-22T16:34:51.000Z,16.4
2022-09-22T16:36:07.000Z,16.4
2022-09-22T16:37:23.000Z,16.3
2022-09-22T16:38:39.000Z,16.3
2022-09-22T16:39:55.949Z,16.2
2022-09-22T16:41:11.121Z,16.1
2022-09-22T16:42:27.265Z,16
2022-09-22T16:43:43.000Z,16
2022-09-22T16:44:59.000Z,15.9
2022-09-22T16:46:15.000Z,15.8
2022-09-22T16:47:31.000Z,15.8
2022-09-22T16:48:47.000Z,15.7
2022-09-22T16:50:03.000Z,15.6
2022-09-22T16:51:20.000Z,15.6
2022-09-22T16:52:36.413Z,15.5
2022-09-22T16:53:52.000Z,15.5
2022-09-22T16:55:08.000Z,15.4
2022-09-22T16:56:24.000Z,15.3
2022-09-22T16:57:39.000Z,15.2
2022-09-22T16:58:55.000Z,15.2
2022-09-22T17:00:12.305Z,15.1
2022-09-22T17:01:28.000Z,15
2022-09-22T17:02:44.000Z,14.9
2022-09-22T17:04:00.741Z,14.8
2022-09-22T17:05:16.880Z,14.7
2022-09-22T17:06:32.000Z,14.7
2022-09-22T17:07:48.000Z,14.6
2022-09-22T17:09:05.000Z,14.5
2022-09-22T17:10:21.467Z,14.4
2022-09-22T17:11:37.000Z,14.3
2022-09-22T17:12:53.768Z,14.2
2022-09-22T17:14:08.915Z,14.2
2022-09-22T17:15:24.000Z,14.1
2022-09-22T17:16:41.203Z,14
2022-09-22T17:17:57.346Z,13.9
2022-09-22T17:19:13.492Z,13.8
2022-09-22T17:20:29.000Z,13.8
2022-09-22T17:21:45.000Z,13.7
2022-09-22T17:23:01.000Z,13.6